Terminal Aerodrome Forecast
Issued by NWS

Home | Current Version | Previous Version | Text Only | Print | Product List | Glossary On
Versions: 1 2 3 4 5 6 7 8 9 10 11 12 13 14 15 16
466
FTAK31 PAJN 272337
TAFAKT
TAF
PAKT 272337Z 2800/2824 12008KT P6SM SKC
     FM280500 15005KT P6SM SCT060 BKN100
     FM281200 15004KT P6SM VCSH SCT030 BKN060 OVC100
     FM281800 12006KT P6SM VCSH OVC060
      AMD LTD TO CLD VIS AND WIND 2806/2815=

USA.gov is the U.S. government's official web portal to all federal, state and local government web resources and services.